Time;durP1;ratioP1;P1;durP2;ratioP2;P2;SDS_P1;SDS_P2;PMS_P1;PMS_P2;Temp;Humidity;BMP_temperature;BMP_pressure;BME280_temperature;BME280_humidity;BME280_pressure;Samples;Min_cycle;Max_cycle;Signal;HPM_P1;HPM_P2
2022/01/08 00:00:43;;;;;;;22.70;11.20;;;;;;;-2.99;63.75;100508.38;84580;1329;22597;-71
2022/01/08 00:02:57;;;;;;;24.40;12.20;;;;;;;-2.98;64.32;100501.90;84583;1325;22604;-72
2022/01/08 00:05:08;;;;;;;27.40;12.00;;;;;;;-2.97;64.10;100498.67;84620;1327;22641;-73
2022/01/08 00:07:20;;;;;;;31.60;13.90;;;;;;;-2.98;64.53;100496.44;84608;1329;22722;-73
2022/01/08 00:09:35;;;;;;;22.00;11.10;;;;;;;-3.00;64.19;100497.08;84579;1329;22704;-72
2022/01/08 00:11:47;;;;;;;24.80;13.50;;;;;;;-3.02;64.09;100496.02;83909;1329;1003651;-72
2022/01/08 00:13:59;;;;;;;25.30;11.30;;;;;;;-3.03;64.14;100491.73;84627;1329;23918;-72
2022/01/08 00:16:11;;;;;;;25.40;12.20;;;;;;;-3.07;64.15;100488.25;84588;1329;24239;-72
2022/01/08 00:18:23;;;;;;;28.50;12.20;;;;;;;-3.10;64.08;100488.36;84589;1329;25434;-72
2022/01/08 00:20:33;;;;;;;23.60;12.30;;;;;;;-3.14;64.11;100489.99;84619;1330;22601;-74
2022/01/08 00:22:42;;;;;;;20.80;10.20;;;;;;;-3.17;63.97;100491.30;83897;1329;1003680;-74
2022/01/08 00:24:54;;;;;;;29.30;11.80;;;;;;;-3.21;64.15;100482.86;84596;1329;24139;-72
2022/01/08 00:27:10;;;;;;;25.90;11.50;;;;;;;-3.23;63.89;100482.13;84597;1331;22600;-72
2022/01/08 00:29:23;;;;;;;28.90;13.00;;;;;;;-3.27;64.20;100478.66;84631;1330;22759;-73
2022/01/08 00:31:33;;;;;;;27.70;12.80;;;;;;;-3.30;64.06;100477.73;84588;1333;22759;-73
2022/01/08 00:33:47;;;;;;;27.90;12.50;;;;;;;-3.33;64.42;100473.08;84594;1331;22597;-74
2022/01/08 00:35:56;;;;;;;29.50;11.40;;;;;;;-3.36;64.11;100476.42;84593;1331;24039;-74
2022/01/08 00:38:05;;;;;;;27.90;12.80;;;;;;;-3.37;64.18;100478.11;84607;1330;25484;-75
2022/01/08 00:40:18;;;;;;;30.00;13.60;;;;;;;-3.40;64.00;100478.04;84580;1329;22877;-74
2022/01/08 00:42:28;;;;;;;26.10;12.00;;;;;;;-3.43;64.36;100473.89;84620;1329;22614;-74
2022/01/08 00:44:38;;;;;;;26.10;12.50;;;;;;;-3.47;64.43;100468.69;84630;1329;22833;-74
2022/01/08 00:46:48;;;;;;;;;;;;;;;-3.51;64.60;100467.42;84629;1326;25438;-74
2022/01/08 00:48:57;;;;;;;29.40;11.60;;;;;;;-3.58;64.24;100464.39;84639;1330;22714;-73
2022/01/08 00:51:05;;;;;;;;;;;;;;;-3.61;64.52;100462.12;84575;1330;25311;-74
2022/01/08 00:53:14;;;;;;;30.90;11.70;;;;;;;-3.66;64.50;100460.81;84598;1329;24151;-73
2022/01/08 00:55:23;;;;;;;33.50;13.10;;;;;;;-3.66;64.33;100459.09;84625;1329;23941;-74
2022/01/08 00:57:35;;;;;;;31.00;12.20;;;;;;;-3.68;64.30;100458.91;83859;1329;1002947;-75
2022/01/08 00:59:44;;;;;;;26.00;11.10;;;;;;;-3.70;64.61;100462.44;83866;1330;1003124;-74
2022/01/08 01:01:56;;;;;;;25.70;11.10;;;;;;;-3.72;64.58;100465.29;84592;1332;22619;-75
2022/01/08 01:04:08;;;;;;;25.20;10.80;;;;;;;-3.75;64.46;100463.88;84632;1329;24446;-72
2022/01/08 01:06:17;;;;;;;22.90;12.10;;;;;;;-3.77;64.79;100459.55;84592;1329;25437;-71
2022/01/08 01:08:29;;;;;;;29.10;12.20;;;;;;;-3.81;64.80;100457.59;83884;1330;1003353;-73
2022/01/08 01:10:38;;;;;;;29.30;13.10;;;;;;;-3.84;64.64;100452.57;84601;1329;24227;-72
2022/01/08 01:12:50;;;;;;;29.40;13.00;;;;;;;-3.85;64.38;100451.52;84602;1329;22713;-72
2022/01/08 01:14:59;;;;;;;24.00;11.00;;;;;;;-3.86;64.44;100450.48;83930;1329;1003174;-74
2022/01/08 01:17:08;;;;;;;24.20;12.50;;;;;;;-3.87;64.15;100446.73;84622;1329;22731;-74
2022/01/08 01:19:21;;;;;;;28.70;11.50;;;;;;;-3.86;64.11;100443.16;84587;1329;25437;-72
2022/01/08 01:21:30;;;;;;;21.50;10.90;;;;;;;-3.86;64.00;100437.86;84599;1329;22605;-73
2022/01/08 01:23:43;;;;;;;26.00;11.30;;;;;;;-3.86;63.80;100436.17;84621;1330;24253;-74
2022/01/08 01:26:00;;;;;;;29.50;12.30;;;;;;;-3.87;64.23;100436.16;84572;1329;22590;-73
2022/01/08 01:28:24;;;;;;;26.60;11.60;;;;;;;-3.90;64.18;100438.48;84595;1332;22625;-73
2022/01/08 01:30:59;;;;;;;24.40;11.40;;;;;;;-3.95;64.30;100432.40;84611;1329;22609;-75
2022/01/08 01:43:27;;;;;;;23.80;11.60;;;;;;;-4.14;64.45;100421.43;84559;1330;22612;-73
2022/01/08 01:48:07;;;;;;;26.40;12.40;;;;;;;-4.20;64.80;100418.74;83875;1326;1003791;-76
2022/01/08 01:50:18;;;;;;;31.20;13.50;;;;;;;-4.21;64.80;100416.17;83887;1329;1003903;-75
2022/01/08 01:52:28;;;;;;;26.80;12.90;;;;;;;-4.21;64.90;100416.52;84590;1330;22618;-74
2022/01/08 01:54:40;;;;;;;21.20;11.40;;;;;;;-4.20;64.79;100419.23;83910;1329;1003420;-75
2022/01/08 01:56:49;;;;;;;26.10;13.00;;;;;;;-4.22;64.95;100419.55;84578;1329;22601;-74
2022/01/08 01:58:58;;;;;;;26.30;12.60;;;;;;;-4.22;65.06;100417.85;84606;1329;22615;-73
2022/01/08 02:01:07;;;;;;;27.30;12.30;;;;;;;-4.25;65.14;100416.95;84596;1330;22591;-72
2022/01/08 02:03:19;;;;;;;32.00;12.60;;;;;;;-4.27;65.01;100415.52;84588;1333;24243;-72
2022/01/08 02:05:30;;;;;;;29.30;13.00;;;;;;;-4.30;65.03;100413.92;84614;1329;22623;-75
2022/01/08 02:07:39;;;;;;;31.00;12.50;;;;;;;-4.32;65.07;100407.24;84585;1329;25508;-75
2022/01/08 02:09:48;;;;;;;21.40;10.40;;;;;;;-4.34;65.39;100409.06;84630;1329;22890;-76
2022/01/08 02:12:03;;;;;;;30.70;12.30;;;;;;;-4.39;65.48;100408.94;84583;1330;22610;-73
2022/01/08 02:14:12;;;;;;;25.40;11.90;;;;;;;-4.44;65.62;100409.00;84591;1329;22678;-73
2022/01/08 02:16:24;;;;;;;25.60;13.10;;;;;;;-4.49;65.46;100399.18;84619;1332;22595;-72
2022/01/08 02:18:34;;;;;;;28.50;12.80;;;;;;;-4.50;65.30;100393.20;83864;1332;1003722;-73
2022/01/08 02:20:42;;;;;;;30.00;12.50;;;;;;;-4.51;65.26;100389.78;84603;1329;22602;-72
2022/01/08 02:22:51;;;;;;;27.90;11.70;;;;;;;-4.54;65.40;100389.37;84589;1330;24136;-72
2022/01/08 02:25:01;;;;;;;27.30;11.60;;;;;;;-4.57;65.55;100390.64;84583;1330;22604;-74
2022/01/08 02:27:13;;;;;;;26.50;10.60;;;;;;;-4.61;65.40;100392.42;84613;1329;22710;-74
2022/01/08 02:29:23;;;;;;;27.70;11.60;;;;;;;-4.62;65.31;100394.45;83904;1330;1003779;-73
2022/01/08 02:31:35;;;;;;;28.50;12.80;;;;;;;-4.63;65.49;100391.02;84601;1331;23950;-74
2022/01/08 02:33:47;;;;;;;32.60;13.40;;;;;;;-4.65;65.56;100391.30;84636;1329;22606;-73
2022/01/08 02:35:59;;;;;;;27.90;12.30;;;;;;;-4.67;65.60;100392.27;83895;1329;1002561;-73
2022/01/08 02:38:12;;;;;;;24.80;11.20;;;;;;;-4.71;65.68;100392.20;84587;1324;22730;-73
2022/01/08 02:40:22;;;;;;;30.20;13.30;;;;;;;-4.75;65.76;100389.73;84590;1330;22595;-74
2022/01/08 02:42:38;;;;;;;26.00;12.10;;;;;;;-4.80;65.93;100388.58;83891;1329;1002978;-75
2022/01/08 02:44:49;;;;;;;21.90;9.80;;;;;;;-4.84;66.26;100385.07;84615;1329;22953;-75
2022/01/08 02:46:58;;;;;;;24.00;11.30;;;;;;;-4.87;66.36;100380.41;84591;1329;24294;-75
2022/01/08 02:49:07;;;;;;;26.20;11.70;;;;;;;-4.89;65.98;100374.73;84585;1325;23058;-75
2022/01/08 02:51:16;;;;;;;23.50;11.30;;;;;;;-4.88;66.01;100371.04;84575;1330;23983;-76
2022/01/08 02:53:25;;;;;;;18.00;9.80;;;;;;;-4.88;66.31;100371.36;84585;1329;22640;-75
2022/01/08 02:55:36;;;;;;;25.90;10.20;;;;;;;-4.88;66.42;100368.65;84592;1329;24039;-74
2022/01/08 02:57:45;;;;;;;23.60;11.10;;;;;;;-4.88;66.62;100365.23;84547;1331;22609;-74
2022/01/08 02:59:54;;;;;;;26.20;11.60;;;;;;;-4.88;66.48;100361.66;83903;1329;1003345;-75
2022/01/08 03:02:03;;;;;;;27.70;13.10;;;;;;;-4.90;66.60;100358.55;83977;1330;868368;-76
2022/01/08 03:04:15;;;;;;;28.20;12.30;;;;;;;-4.93;66.68;100359.50;84643;1327;22569;-76
2022/01/08 03:06:24;;;;;;;25.80;11.20;;;;;;;-4.95;66.61;100360.14;84594;1333;22621;-76
2022/01/08 03:08:33;;;;;;;27.10;11.30;;;;;;;-4.98;66.76;100360.08;84581;1329;25459;-76
2022/01/08 03:10:42;;;;;;;25.00;11.60;;;;;;;-5.02;66.72;100360.83;83876;1331;1003276;-76
2022/01/08 03:12:51;;;;;;;23.90;10.50;;;;;;;-5.05;66.64;100365.84;84601;1331;22617;-76
2022/01/08 03:15:03;;;;;;;24.10;10.40;;;;;;;-5.08;66.63;100366.63;84610;1330;25437;-74
2022/01/08 03:17:15;;;;;;;24.50;10.80;;;;;;;-5.09;66.49;100373.04;84610;1329;22810;-72
2022/01/08 03:19:26;;;;;;;26.60;12.50;;;;;;;-5.12;66.52;100373.66;84595;1329;22622;-75
2022/01/08 03:21:39;;;;;;;28.40;11.70;;;;;;;-5.12;66.49;100376.70;84592;1330;22593;-74
2022/01/08 03:23:55;;;;;;;23.50;12.70;;;;;;;-5.13;66.24;100372.61;84583;1329;22863;-75
2022/01/08 03:26:04;;;;;;;27.50;12.10;;;;;;;-5.13;66.33;100370.55;84596;1333;22624;-77
2022/01/08 03:28:15;;;;;;;27.10;11.00;;;;;;;-5.15;66.28;100367.98;84587;1330;22593;-72
2022/01/08 03:30:24;;;;;;;24.20;12.20;;;;;;;-5.18;66.33;100365.70;84628;1329;22607;-75
2022/01/08 03:32:33;;;;;;;23.70;11.40;;;;;;;-5.22;66.43;100361.52;84609;1329;22788;-74
2022/01/08 03:34:43;;;;;;;25.30;11.50;;;;;;;-5.25;66.47;100358.20;84613;1329;25529;-73
2022/01/08 03:36:52;;;;;;;23.30;11.00;;;;;;;-5.27;66.48;100356.95;83881;1330;1003830;-72
2022/01/08 03:39:01;;;;;;;23.20;11.10;;;;;;;-5.29;66.55;100355.21;84656;1330;22701;-73
2022/01/08 03:41:10;;;;;;;17.10;7.80;;;;;;;-5.30;66.44;100355.70;84573;1330;25260;-75
2022/01/08 03:43:19;;;;;;;30.30;11.80;;;;;;;-5.31;66.47;100350.23;84603;1333;22603;-74
2022/01/08 03:45:31;;;;;;;24.20;10.90;;;;;;;-5.31;66.62;100349.21;84598;1329;22722;-74
2022/01/08 03:48:05;;;;;;;26.10;10.60;;;;;;;-5.35;66.76;100345.04;83892;1325;1002914;-74
2022/01/08 03:50:14;;;;;;;30.70;11.50;;;;;;;-5.37;66.97;100344.62;84582;1327;22603;-73
2022/01/08 03:52:23;;;;;;;21.40;10.40;;;;;;;-5.37;66.92;100342.92;84589;1329;22869;-73
2022/01/08 03:54:35;;;;;;;26.60;12.20;;;;;;;-5.36;66.95;100343.48;84590;1330;22628;-72
2022/01/08 03:56:44;;;;;;;24.60;10.50;;;;;;;-5.33;66.83;100339.29;84598;1329;25427;-76
2022/01/08 03:58:56;;;;;;;22.30;10.90;;;;;;;-5.28;66.98;100339.23;84608;1330;22741;-74
2022/01/08 04:01:08;;;;;;;24.10;11.00;;;;;;;-5.27;66.93;100336.23;84589;1332;22678;-75
2022/01/08 04:03:20;;;;;;;28.10;11.50;;;;;;;-5.25;66.91;100337.46;84611;1325;22735;-75
2022/01/08 04:05:29;;;;;;;25.20;12.30;;;;;;;-5.26;67.11;100337.09;84631;1329;22703;-75
2022/01/08 04:07:41;;;;;;;25.00;11.70;;;;;;;-5.28;67.00;100332.78;84622;1332;22890;-74
2022/01/08 04:09:50;;;;;;;25.70;11.30;;;;;;;-5.32;67.13;100327.23;84630;1326;22767;-73
2022/01/08 04:12:04;;;;;;;33.40;12.50;;;;;;;-5.35;67.18;100325.11;84608;1330;22612;-72
2022/01/08 04:14:18;;;;;;;28.10;11.70;;;;;;;-5.38;67.31;100329.31;84654;1330;23916;-74
2022/01/08 04:16:31;;;;;;;32.30;13.80;;;;;;;-5.40;67.24;100332.66;83894;1329;1003896;-74
2022/01/08 04:18:40;;;;;;;29.40;12.80;;;;;;;-5.41;67.27;100333.81;83910;1333;1003748;-73
2022/01/08 04:21:07;;;;;;;32.00;12.80;;;;;;;-5.42;67.03;100333.61;84614;1329;24238;-75
2022/01/08 04:23:20;;;;;;;24.90;12.40;;;;;;;-5.44;67.14;100326.77;84618;1328;22815;-72
2022/01/08 04:25:30;;;;;;;28.40;14.70;;;;;;;-5.48;67.37;100324.65;83894;1329;1003880;-74
2022/01/08 04:27:41;;;;;;;23.90;10.50;;;;;;;-5.52;67.42;100320.13;84619;1329;22847;-75
2022/01/08 04:29:51;;;;;;;28.10;13.30;;;;;;;-5.54;67.34;100320.03;84567;1330;22604;-74
2022/01/08 04:32:03;;;;;;;29.20;12.80;;;;;;;-5.58;67.56;100318.10;84634;1321;22568;-73
2022/01/08 04:34:14;;;;;;;30.30;12.70;;;;;;;-5.61;67.66;100321.74;84650;1325;22622;-74
2022/01/08 04:36:26;;;;;;;27.30;12.30;;;;;;;-5.63;67.61;100317.27;84599;1329;22706;-76
2022/01/08 04:38:44;;;;;;;26.00;12.90;;;;;;;-5.63;67.62;100314.22;84601;1329;24692;-75
2022/01/08 04:40:55;;;;;;;34.20;12.90;;;;;;;-5.60;67.58;100309.88;84589;1331;22634;-74
2022/01/08 04:43:05;;;;;;;24.80;12.60;;;;;;;-5.57;67.75;100310.46;83890;1330;1005575;-73
2022/01/08 04:45:18;;;;;;;30.10;12.70;;;;;;;-5.54;67.89;100309.52;84614;1330;24248;-74
2022/01/08 04:47:27;;;;;;;28.40;12.20;;;;;;;-5.52;67.91;100310.08;84599;1330;22608;-74
2022/01/08 04:49:36;;;;;;;31.20;13.60;;;;;;;-5.49;68.00;100313.73;84593;1330;22598;-73
2022/01/08 04:51:45;;;;;;;26.10;12.80;;;;;;;-5.46;67.91;100312.27;84625;1333;25301;-73
2022/01/08 04:53:57;;;;;;;27.00;12.40;;;;;;;-5.47;67.95;100315.83;84585;1333;23699;-74
2022/01/08 04:56:06;;;;;;;30.80;13.70;;;;;;;-5.46;67.94;100319.08;84584;1330;22589;-73
2022/01/08 04:58:15;;;;;;;29.60;13.40;;;;;;;-5.47;67.82;100316.85;84624;1330;25439;-73
2022/01/08 05:00:25;;;;;;;32.50;14.90;;;;;;;-5.48;67.69;100314.25;84576;1333;26682;-74
2022/01/08 05:02:34;;;;;;;29.90;13.40;;;;;;;-5.49;67.80;100309.15;84595;1330;22594;-73
2022/01/08 05:04:43;;;;;;;28.30;13.20;;;;;;;-5.50;68.06;100303.49;84582;1335;24252;-73
2022/01/08 05:06:52;;;;;;;33.20;15.20;;;;;;;-5.53;67.95;100304.59;84646;1333;24108;-72
2022/01/08 05:09:04;;;;;;;31.00;14.10;;;;;;;-5.57;68.05;100303.82;83928;1330;1003855;-74
2022/01/08 05:11:13;;;;;;;35.40;15.60;;;;;;;-5.61;68.11;100299.66;84596;1333;24405;-72
2022/01/08 05:13:22;;;;;;;31.50;12.70;;;;;;;-5.64;68.32;100297.70;84620;1321;22558;-73
2022/01/08 05:15:32;;;;;;;31.80;14.40;;;;;;;-5.66;68.39;100302.23;84638;1330;22662;-73
2022/01/08 05:17:42;;;;;;;33.20;13.80;;;;;;;-5.68;68.43;100302.17;84598;1331;24393;-73
2022/01/08 05:19:51;;;;;;;31.60;14.70;;;;;;;-5.72;68.31;100301.06;84626;1330;22642;-73
2022/01/08 05:22:00;;;;;;;32.80;14.20;;;;;;;-5.75;68.54;100296.23;84598;1329;22587;-73
2022/01/08 05:24:12;;;;;;;28.10;13.70;;;;;;;-5.78;68.41;100295.48;84600;1325;22610;-74
2022/01/08 05:26:21;;;;;;;32.40;13.40;;;;;;;-5.80;68.50;100299.16;83881;1330;1002521;-73
2022/01/08 05:28:34;;;;;;;31.90;14.10;;;;;;;-5.82;68.57;100293.34;84614;1333;22854;-74
2022/01/08 05:30:43;;;;;;;27.10;14.00;;;;;;;-5.80;68.50;100294.06;83876;1329;1003794;-75
2022/01/08 05:32:52;;;;;;;24.20;13.10;;;;;;;-5.78;68.72;100288.50;84590;1333;25946;-74
2022/01/08 05:35:01;;;;;;;27.60;13.40;;;;;;;-5.75;68.64;100291.31;84623;1329;25020;-74
2022/01/08 05:37:10;;;;;;;32.60;12.70;;;;;;;-5.72;68.71;100291.88;84593;1333;22882;-74
2022/01/08 05:39:19;;;;;;;33.70;15.90;;;;;;;-5.69;68.83;100298.94;84619;1333;22557;-74
2022/01/08 05:41:28;;;;;;;28.80;13.50;;;;;;;-5.67;68.68;100298.30;84579;1333;22597;-75
2022/01/08 05:43:37;;;;;;;31.70;13.90;;;;;;;-5.67;68.54;100299.31;84581;1333;24217;-74
2022/01/08 05:45:46;;;;;;;33.20;14.00;;;;;;;-5.66;68.59;100300.18;84594;1333;24107;-74
2022/01/08 05:47:55;;;;;;;31.10;14.40;;;;;;;-5.67;68.53;100298.80;84601;1329;22890;-76
2022/01/08 05:50:08;;;;;;;32.10;14.50;;;;;;;-5.71;68.44;100295.81;83872;1330;1002901;-75
2022/01/08 05:52:16;;;;;;;30.00;13.80;;;;;;;-5.72;68.56;100295.79;84605;1329;22750;-75
2022/01/08 05:54:25;;;;;;;29.50;13.80;;;;;;;-5.76;68.61;100297.56;84618;1329;22731;-75
2022/01/08 05:56:34;;;;;;;30.40;13.80;;;;;;;-5.80;68.58;100298.31;84592;1333;25317;-75
2022/01/08 05:58:43;;;;;;;28.90;14.70;;;;;;;-5.83;68.52;100299.08;84620;1329;22575;-74
2022/01/08 06:00:53;;;;;;;32.80;13.90;;;;;;;-5.85;68.55;100302.23;84598;1333;23494;-74
2022/01/08 06:03:01;;;;;;;30.70;14.50;;;;;;;-5.88;68.65;100299.27;83896;1333;1003107;-74
2022/01/08 06:05:12;;;;;;;31.80;14.30;;;;;;;-5.88;68.62;100299.27;84618;1330;22953;-76
2022/01/08 06:07:23;;;;;;;30.60;14.40;;;;;;;-5.89;68.65;100298.56;84629;1329;22623;-75
2022/01/08 06:09:32;;;;;;;29.20;14.90;;;;;;;-5.91;68.65;100300.92;84604;1329;22625;-75
2022/01/08 06:11:41;;;;;;;29.20;15.70;;;;;;;-5.92;68.85;100299.36;83886;1332;1003000;-75
2022/01/08 06:13:53;;;;;;;28.60;13.60;;;;;;;-5.94;68.81;100299.14;83931;1333;1003762;-76
2022/01/08 06:16:02;;;;;;;35.20;13.90;;;;;;;-5.95;68.69;100295.90;84606;1333;24334;-75
2022/01/08 06:18:11;;;;;;;32.50;15.20;;;;;;;-5.94;68.80;100289.29;84586;1332;22830;-75
2022/01/08 06:20:23;;;;;;;31.30;15.20;;;;;;;-5.92;68.75;100289.67;84604;1329;22891;-75
2022/01/08 06:22:35;;;;;;;29.10;14.60;;;;;;;-5.89;68.89;100293.65;84589;1327;22701;-75
2022/01/08 06:24:47;;;;;;;26.40;12.80;;;;;;;-5.86;68.81;100300.35;84586;1333;22598;-74
2022/01/08 06:26:59;;;;;;;31.30;13.40;;;;;;;-5.83;68.93;100300.09;84611;1329;22619;-75
2022/01/08 06:29:12;;;;;;;30.80;14.70;;;;;;;-5.79;68.93;100298.49;84623;1332;24320;-75
2022/01/08 06:31:21;;;;;;;33.10;14.40;;;;;;;-5.77;68.98;100295.49;84604;1330;26460;-75
2022/01/08 06:33:35;;;;;;;31.80;15.00;;;;;;;-5.76;68.94;100296.88;84614;1330;24141;-75
2022/01/08 06:35:43;;;;;;;30.60;14.80;;;;;;;-5.78;68.85;100296.49;83869;1330;1003855;-74
2022/01/08 06:37:55;;;;;;;28.90;15.10;;;;;;;-5.80;68.87;100293.38;83930;1333;1003011;-75
2022/01/08 06:40:08;;;;;;;31.20;15.00;;;;;;;-5.81;68.83;100294.22;84617;1333;24240;-69
2022/01/08 06:42:17;;;;;;;29.00;14.60;;;;;;;-5.81;68.99;100290.45;84608;1324;25307;-70
2022/01/08 06:44:27;;;;;;;32.40;15.90;;;;;;;-5.83;68.86;100290.06;83913;1330;1003860;-78
2022/01/08 06:46:36;;;;;;;30.10;15.20;;;;;;;-5.85;68.94;100294.11;83913;1327;1003015;-75
2022/01/08 06:48:48;;;;;;;33.90;16.30;;;;;;;-5.87;69.01;100291.84;84602;1333;26193;-74
2022/01/08 06:50:57;;;;;;;35.20;14.60;;;;;;;-5.88;69.03;100291.13;84599;1333;22644;-74
2022/01/08 06:53:09;;;;;;;34.80;14.80;;;;;;;-5.89;69.05;100295.52;83899;1329;1003070;-76
2022/01/08 06:55:21;;;;;;;30.10;14.70;;;;;;;-5.90;69.12;100293.98;84612;1331;26913;-75
2022/01/08 06:57:34;;;;;;;31.80;15.50;;;;;;;-5.90;69.03;100293.46;84584;1333;25454;-75
2022/01/08 06:59:43;;;;;;;37.80;15.60;;;;;;;-5.90;69.14;100294.64;84602;1329;22616;-75
2022/01/08 07:01:52;;;;;;;33.20;16.80;;;;;;;-5.89;69.13;100297.04;83889;1330;1003105;-75
2022/01/08 07:04:02;;;;;;;29.10;14.30;;;;;;;-5.89;69.16;100292.46;84618;1333;22605;-74
2022/01/08 07:06:11;;;;;;;36.50;15.40;;;;;;;-5.88;69.32;100294.52;84596;1333;22589;-74
2022/01/08 07:08:20;;;;;;;34.50;16.20;;;;;;;-5.87;69.16;100290.14;84612;1329;22731;-75
2022/01/08 07:10:29;;;;;;;33.00;15.10;;;;;;;-5.82;69.46;100290.59;84613;1330;23092;-76
2022/01/08 07:12:38;;;;;;;32.60;15.10;;;;;;;-5.77;69.45;100286.52;84614;1330;22670;-75
2022/01/08 07:14:47;;;;;;;32.30;15.00;;;;;;;-5.70;69.54;100290.92;84632;1333;22631;-74
2022/01/08 07:16:56;;;;;;;34.80;15.90;;;;;;;-5.64;69.36;100291.92;84588;1331;22596;-75
2022/01/08 07:19:08;;;;;;;37.40;16.20;;;;;;;-5.60;69.34;100291.86;84616;1325;22687;-75
2022/01/08 07:21:17;;;;;;;37.70;16.90;;;;;;;-5.58;69.45;100291.73;84601;1330;22752;-75
2022/01/08 07:23:26;;;;;;;31.00;15.40;;;;;;;-5.54;69.20;100287.59;83893;1329;1003163;-76
2022/01/08 07:25:35;;;;;;;34.40;15.20;;;;;;;-5.51;69.18;100284.95;84606;1333;22729;-75
2022/01/08 07:27:44;;;;;;;34.70;15.90;;;;;;;-5.48;69.04;100281.78;84590;1329;22702;-76
2022/01/08 07:29:57;;;;;;;33.60;17.20;;;;;;;-5.44;68.92;100275.10;84612;1330;22598;-75
2022/01/08 07:32:10;;;;;;;31.30;16.40;;;;;;;-5.40;69.15;100273.66;84596;1329;22681;-75
2022/01/08 07:34:19;;;;;;;33.00;15.80;;;;;;;-5.37;69.21;100273.56;84583;1333;25301;-75
2022/01/08 07:36:28;;;;;;;34.30;16.60;;;;;;;-5.30;68.97;100275.45;84597;1329;22600;-75
2022/01/08 07:38:43;;;;;;;31.70;15.10;;;;;;;-5.12;68.93;100276.06;84613;1333;22646;-75
2022/01/08 07:40:55;;;;;;;35.30;15.60;;;;;;;-4.80;69.11;100271.67;84602;1330;22897;-75
2022/01/08 07:43:08;;;;;;;34.30;14.80;;;;;;;-4.63;68.22;100267.45;84604;1330;23955;-75
2022/01/08 07:45:17;;;;;;;33.50;15.60;;;;;;;-4.44;68.07;100261.71;84646;1329;22599;-75
2022/01/08 07:47:30;;;;;;;39.20;16.30;;;;;;;-3.83;68.13;100261.05;84609;1330;22635;-75
2022/01/08 07:49:39;;;;;;;31.10;15.50;;;;;;;-3.14;67.56;100257.09;84610;1331;24125;-75
2022/01/08 07:51:51;;;;;;;32.70;16.30;;;;;;;-2.62;66.76;100259.73;84584;1329;22654;-76
2022/01/08 07:54:00;;;;;;;30.30;15.50;;;;;;;-2.32;65.62;100253.96;84642;1329;22633;-74
2022/01/08 07:56:09;;;;;;;33.50;15.30;;;;;;;-2.13;64.63;100258.11;84565;1331;25445;-75
2022/01/08 07:58:22;;;;;;;36.70;17.20;;;;;;;-1.94;64.10;100262.77;84592;1330;22561;-75
2022/01/08 08:00:31;;;;;;;32.70;16.40;;;;;;;-1.84;63.80;100258.44;84622;1328;23867;-75
2022/01/08 08:02:43;;;;;;;30.10;15.80;;;;;;;-1.77;63.27;100258.66;84623;1329;24026;-73
2022/01/08 08:04:52;;;;;;;32.90;16.40;;;;;;;-1.81;62.24;100262.39;83903;1322;1003411;-75
2022/01/08 08:07:01;;;;;;;31.40;16.60;;;;;;;-1.84;62.38;100263.91;84591;1329;22593;-76
2022/01/08 08:09:10;;;;;;;28.70;15.60;;;;;;;-1.92;61.89;100260.91;84593;1330;25350;-77
2022/01/08 08:11:19;;;;;;;31.00;14.50;;;;;;;-1.99;62.00;100257.75;84592;1330;22645;-74
2022/01/08 08:13:32;;;;;;;30.70;16.20;;;;;;;-2.04;61.12;100256.85;84623;1329;22791;-76
2022/01/08 08:15:41;;;;;;;30.40;15.10;;;;;;;-2.05;61.40;100260.42;84602;1329;22734;-75
2022/01/08 08:17:53;;;;;;;31.30;15.50;;;;;;;-2.04;61.75;100258.20;84595;1329;23931;-76
2022/01/08 08:20:02;;;;;;;34.00;17.00;;;;;;;-2.00;61.88;100250.58;84641;1329;22791;-76
2022/01/08 08:22:11;;;;;;;33.60;15.40;;;;;;;-1.96;61.84;100251.48;84590;1330;25569;-76
2022/01/08 08:24:22;;;;;;;28.40;15.30;;;;;;;-1.95;61.10;100252.50;83920;1330;1003011;-77
2022/01/08 08:26:34;;;;;;;35.00;15.70;;;;;;;-1.98;61.77;100254.52;83848;1333;1015773;-76
2022/01/08 08:28:46;;;;;;;30.80;15.10;;;;;;;-1.97;61.65;100255.20;84633;1329;23790;-76
2022/01/08 08:31:01;;;;;;;29.10;14.80;;;;;;;-1.98;61.77;100256.40;84571;1331;22630;-75
2022/01/08 08:33:10;;;;;;;32.20;15.10;;;;;;;-1.99;61.85;100257.07;84624;1331;22585;-77
2022/01/08 08:35:19;;;;;;;32.30;15.00;;;;;;;-2.03;61.42;100250.70;84611;1329;22731;-76
2022/01/08 08:37:28;;;;;;;160.80;77.00;;;;;;;-2.09;61.22;100244.65;84594;1330;26514;-76
2022/01/08 08:39:37;;;;;;;80.50;39.00;;;;;;;-2.14;61.40;100243.92;83945;1329;1003068;-76
2022/01/08 08:41:46;;;;;;;39.50;18.40;;;;;;;-2.16;61.46;100245.77;84592;1329;25275;-77
2022/01/08 08:43:55;;;;;;;29.70;15.50;;;;;;;-2.17;61.82;100244.91;84600;1329;26496;-75
2022/01/08 08:46:04;;;;;;;28.80;15.00;;;;;;;-2.12;61.65;100246.34;83919;1325;1002961;-76
2022/01/08 08:48:13;;;;;;;35.80;15.90;;;;;;;-2.10;61.54;100248.92;84605;1331;23042;-75
2022/01/08 08:50:23;;;;;;;32.30;15.70;;;;;;;-2.07;61.39;100245.37;84556;1329;22724;-75
2022/01/08 08:52:32;;;;;;;32.20;16.00;;;;;;;-2.01;61.88;100248.17;84588;1329;23997;-75
2022/01/08 08:54:44;;;;;;;30.40;15.50;;;;;;;-1.94;62.16;100256.27;84658;1329;22662;-76
2022/01/08 08:56:53;;;;;;;29.30;15.50;;;;;;;-1.90;62.33;100253.07;84602;1329;22615;-76
2022/01/08 08:59:04;;;;;;;30.50;15.90;;;;;;;-1.83;62.14;100253.66;84618;1330;22913;-76
2022/01/08 09:01:13;;;;;;;30.10;16.30;;;;;;;-1.76;62.37;100251.33;84576;1332;25335;-76
2022/01/08 09:03:25;;;;;;;31.60;16.40;;;;;;;-1.70;62.32;100245.23;84608;1329;23736;-75
2022/01/08 09:05:35;;;;;;;34.50;17.10;;;;;;;-1.61;61.95;100245.48;84652;1329;22735;-76
2022/01/08 09:07:47;;;;;;;30.50;16.20;;;;;;;-1.60;61.69;100239.67;84590;1324;22606;-77
2022/01/08 09:09:56;;;;;;;30.20;15.80;;;;;;;-1.57;61.86;100239.72;84603;1329;22593;-76
2022/01/08 09:12:05;;;;;;;29.20;15.30;;;;;;;-1.48;62.09;100233.11;84638;1330;22591;-77
2022/01/08 09:14:17;;;;;;;34.20;16.90;;;;;;;-1.31;62.19;100231.38;84608;1330;22610;-74
2022/01/08 09:16:29;;;;;;;35.00;17.10;;;;;;;-1.23;61.79;100228.35;84586;1329;26516;-73
2022/01/08 09:18:39;;;;;;;33.80;15.80;;;;;;;-1.07;61.38;100222.83;84613;1330;23971;-75
2022/01/08 09:20:52;;;;;;;27.10;14.30;;;;;;;-0.85;60.99;100211.83;84600;1326;24268;-73
2022/01/08 09:23:04;;;;;;;29.80;15.90;;;;;;;-0.70;60.44;100215.52;84609;1331;22607;-75
2022/01/08 09:25:18;;;;;;;32.60;16.50;;;;;;;-0.50;60.86;100213.37;84558;1333;22805;-73
2022/01/08 09:27:28;;;;;;;29.90;14.70;;;;;;;-0.34;60.59;100207.79;84610;1329;22626;-73
2022/01/08 09:29:38;;;;;;;;;;;;;;;-0.32;59.42;100213.62;84608;1329;22589;-74
2022/01/08 09:31:50;;;;;;;28.50;13.90;;;;;;;-0.30;60.18;100212.25;84620;1330;22718;-70
2022/01/08 09:34:05;;;;;;;27.40;13.80;;;;;;;-0.17;58.59;100210.07;84653;1329;22605;-76
2022/01/08 09:36:18;;;;;;;30.20;15.70;;;;;;;-0.11;59.30;100211.63;84560;1327;22582;-76
2022/01/08 09:38:27;;;;;;;28.70;15.10;;;;;;;-0.12;58.87;100213.33;84613;1327;22811;-76
2022/01/08 09:40:39;;;;;;;30.40;14.60;;;;;;;-0.11;59.39;100214.72;84640;1329;22611;-76
2022/01/08 09:42:52;;;;;;;26.50;14.40;;;;;;;-0.08;59.30;100213.69;84599;1325;25529;-76
2022/01/08 09:45:04;;;;;;;26.50;14.20;;;;;;;-0.07;59.04;100210.27;84652;1329;22615;-76
2022/01/08 09:47:13;;;;;;;32.50;16.10;;;;;;;-0.04;59.21;100204.79;84630;1329;22659;-76
2022/01/08 09:49:25;;;;;;;28.90;15.00;;;;;;;0.03;59.64;100212.17;84623;1330;25307;-75
2022/01/08 09:51:34;;;;;;;32.30;14.70;;;;;;;0.10;58.93;100206.36;84606;1326;23829;-75
2022/01/08 09:53:47;;;;;;;28.00;14.30;;;;;;;0.15;58.28;100212.89;84634;1329;22753;-74
2022/01/08 09:55:56;;;;;;;29.80;14.30;;;;;;;0.10;58.74;100213.90;84621;1331;22826;-77
2022/01/08 09:58:11;;;;;;;28.10;14.10;;;;;;;0.14;58.32;100208.42;84605;1326;23859;-75
2022/01/08 10:00:22;;;;;;;26.60;14.30;;;;;;;0.46;58.70;100212.58;84632;1333;22616;-75
2022/01/08 10:02:31;;;;;;;29.30;15.90;;;;;;;0.83;58.38;100208.45;84614;1329;22903;-75
2022/01/08 10:04:44;;;;;;;34.00;15.50;;;;;;;1.06;57.86;100207.04;84648;1330;23967;-72